Time;durP1;ratioP1;P1;durP2;ratioP2;P2;SDS_P1;SDS_P2;PMS_P1;PMS_P2;Temp;Humidity;BMP_temperature;BMP_pressure;BME280_temperature;BME280_humidity;BME280_pressure;Samples;Min_cycle;Max_cycle;Signal;HPM_P1;HPM_P2
2023/07/10 00:00:04;;;;;;;9.10;5.60;;;;;;;19.76;46.24;100821.98;110683;1258;23767;-77
2023/07/10 00:03:00;;;;;;;12.90;5.30;;;;;;;19.72;46.41;100816.58;110665;1265;22379;-78
2023/07/10 00:05:32;;;;;;;9.90;5.50;;;;;;;19.69;46.35;100815.69;110383;1262;23585;-76
2023/07/10 00:08:20;;;;;;;9.80;5.40;;;;;;;19.67;46.34;100816.71;110451;1265;21975;-77
2023/07/10 00:10:59;;;;;;;7.00;4.90;;;;;;;19.65;46.39;100823.56;109667;1269;21974;-79
2023/07/10 00:13:39;;;;;;;6.60;5.30;;;;;;;19.61;46.36;100824.70;110079;1268;24181;-77
2023/07/10 00:16:21;;;;;;;9.00;5.00;;;;;;;19.53;46.66;100819.82;109877;1268;324457;-78
2023/07/10 00:18:56;;;;;;;10.80;5.20;;;;;;;19.50;46.65;100821.91;110166;1268;22009;-78
2023/07/10 00:21:34;;;;;;;11.40;4.90;;;;;;;19.53;46.50;100833.58;109829;1266;21965;-78
2023/07/10 00:24:06;;;;;;;6.50;4.60;;;;;;;19.48;46.38;100832.66;110332;1266;22387;-76
2023/07/10 00:26:42;;;;;;;8.60;5.70;;;;;;;19.42;46.38;100827.91;110142;1265;22056;-77
2023/07/10 00:29:18;;;;;;;7.50;4.30;;;;;;;19.33;46.42;100815.45;110002;1266;22044;-77
2023/07/10 00:31:48;;;;;;;8.40;5.40;;;;;;;19.36;46.58;100821.30;110229;1266;22078;-78
2023/07/10 00:34:25;;;;;;;7.40;4.70;;;;;;;19.37;46.71;100826.35;110103;1266;23019;-77
2023/07/10 00:36:56;;;;;;;6.60;4.80;;;;;;;19.40;46.73;100830.92;110662;1260;21991;-75
2023/07/10 00:39:37;;;;;;;8.80;5.30;;;;;;;19.41;46.76;100828.88;110703;1254;21973;-76
2023/07/10 00:42:24;;;;;;;6.70;5.10;;;;;;;19.41;46.94;100824.27;111392;1254;24262;-77
2023/07/10 00:45:00;;;;;;;9.20;5.60;;;;;;;19.40;47.01;100818.67;111191;1255;24286;-76
2023/07/10 00:47:39;;;;;;;8.20;5.20;;;;;;;19.39;47.27;100819.16;111422;1253;21978;-77
2023/07/10 00:50:28;;;;;;;8.90;5.40;;;;;;;19.33;47.39;100815.27;111111;1255;21988;-77
2023/07/10 00:53:02;;;;;;;7.60;5.00;;;;;;;19.27;47.75;100811.63;111145;1255;21962;-76
2023/07/10 00:55:36;;;;;;;6.60;5.00;;;;;;;19.25;47.92;100808.97;110653;1260;22007;-75
2023/07/10 00:58:32;;;;;;;6.30;3.70;;;;;;;19.24;47.95;100810.64;110670;1260;21973;-77
2023/07/10 01:01:13;;;;;;;9.30;4.90;;;;;;;19.21;47.82;100810.29;110681;1260;21990;-77
2023/07/10 01:03:47;;;;;;;6.60;4.30;;;;;;;19.19;47.86;100810.42;110682;1260;23071;-76
2023/07/10 01:06:29;;;;;;;8.60;3.60;;;;;;;19.15;47.88;100803.59;110657;1260;21985;-76
2023/07/10 01:09:08;;;;;;;8.40;4.30;;;;;;;19.11;47.59;100800.39;110537;1260;21961;-77
2023/07/10 01:11:43;;;;;;;6.60;4.30;;;;;;;19.07;47.52;100799.39;110578;1254;23179;-76
2023/07/10 01:14:22;;;;;;;11.30;4.60;;;;;;;19.06;47.47;100796.48;110992;1255;21955;-78
2023/07/10 01:16:53;;;;;;;7.20;4.30;;;;;;;19.05;47.34;100795.16;110951;1255;21967;-75
2023/07/10 01:19:24;;;;;;;6.90;4.50;;;;;;;19.01;47.23;100795.02;111168;1255;21992;-76
2023/07/10 01:21:56;;;;;;;5.40;3.80;;;;;;;18.92;47.09;100784.52;110681;1260;21975;-76
2023/07/10 01:24:27;;;;;;;7.10;4.30;;;;;;;18.96;47.02;100787.60;109953;1268;21972;-77
2023/07/10 01:27:01;;;;;;;5.50;3.80;;;;;;;18.91;47.08;100793.21;109358;1273;22144;-77
2023/07/10 01:29:41;;;;;;;6.00;4.00;;;;;;;18.88;47.21;100795.18;109141;1273;22012;-80
2023/07/10 01:32:27;;;;;;;8.40;4.10;;;;;;;18.85;47.41;100789.33;109232;1273;22253;-77
2023/07/10 01:35:05;;;;;;;5.90;4.50;;;;;;;18.83;47.55;100787.55;109165;1273;23778;-78
2023/07/10 01:37:39;;;;;;;6.20;3.90;;;;;;;18.79;47.76;100789.05;109125;1273;21976;-77
2023/07/10 01:40:36;;;;;;;7.80;3.90;;;;;;;18.78;48.03;100790.69;109703;1267;21999;-76
2023/07/10 01:43:09;;;;;;;7.80;5.50;;;;;;;18.75;48.08;100793.36;109665;1267;21985;-80
2023/07/10 01:45:47;;;;;;;10.90;5.30;;;;;;;18.67;48.23;100791.71;110381;1261;23105;-76
2023/07/10 01:48:24;;;;;;;6.90;4.50;;;;;;;18.60;48.36;100788.69;110494;1261;22067;-77
2023/07/10 01:50:58;;;;;;;9.00;4.50;;;;;;;18.53;48.72;100794.02;110530;1261;23806;-76
2023/07/10 01:53:28;;;;;;;10.90;4.60;;;;;;;18.42;48.90;100780.31;109756;1267;21975;-76
2023/07/10 01:55:59;;;;;;;6.70;4.70;;;;;;;18.38;49.13;100776.70;110115;1261;22067;-77
2023/07/10 01:58:32;;;;;;;8.00;4.90;;;;;;;18.33;49.31;100787.23;109418;1268;23072;-77
2023/07/10 02:01:08;;;;;;;13.40;5.20;;;;;;;18.28;49.45;100793.35;109621;1267;22052;-78
2023/07/10 02:03:55;;;;;;;8.40;5.10;;;;;;;18.25;49.71;100794.77;109782;1267;23017;-77
2023/07/10 02:06:31;;;;;;;7.30;4.90;;;;;;;18.27;49.89;100797.29;109394;1272;22638;-77
2023/07/10 02:09:17;;;;;;;7.60;5.20;;;;;;;18.30;50.03;100799.53;109330;1272;22022;-80
2023/07/10 02:11:55;;;;;;;7.70;4.60;;;;;;;18.31;50.12;100801.08;109727;1266;21996;-79
2023/07/10 02:14:29;;;;;;;8.20;5.40;;;;;;;18.29;49.98;100799.40;109728;1268;22973;-81
2023/07/10 02:17:01;;;;;;;10.40;5.10;;;;;;;18.25;50.08;100799.85;109754;1266;21987;-82
2023/07/10 02:19:36;;;;;;;9.30;5.10;;;;;;;18.20;50.04;100804.59;110466;1265;23748;-80
2023/07/10 02:22:10;;;;;;;;;;;;;;;18.14;50.04;100801.27;111095;1246;21969;-82
2023/07/10 02:24:41;;;;;;;10.60;5.20;;;;;;;18.02;50.53;100798.09;111058;1257;21967;-80
2023/07/10 02:27:18;;;;;;;7.90;4.80;;;;;;;18.02;50.52;100796.89;111238;1257;23046;-82
2023/07/10 02:30:18;;;;;;;10.50;5.00;;;;;;;18.05;50.65;100797.25;111032;1257;21997;-80
2023/07/10 02:32:54;;;;;;;9.80;5.40;;;;;;;18.08;50.60;100796.53;111244;1257;22215;-80
2023/07/10 02:35:31;;;;;;;7.60;5.10;;;;;;;18.09;50.62;100795.25;110997;1257;21965;-82
2023/07/10 02:38:04;;;;;;;9.80;5.40;;;;;;;18.10;50.77;100797.46;111130;1257;21974;-81
2023/07/10 02:40:37;;;;;;;9.20;5.00;;;;;;;18.09;50.71;100801.92;111233;1257;21965;-80
2023/07/10 02:43:17;;;;;;;9.10;5.60;;;;;;;18.07;50.76;100802.20;111096;1257;22073;-82
2023/07/10 02:45:47;;;;;;;6.10;4.90;;;;;;;18.05;50.81;100804.48;110444;1263;21973;-79
2023/07/10 02:48:19;;;;;;;5.90;4.80;;;;;;;18.03;50.85;100805.85;110291;1263;22256;-81
2023/07/10 02:50:49;;;;;;;5.70;4.90;;;;;;;18.03;50.92;100804.08;110717;1263;21968;-82
2023/07/10 02:53:23;;;;;;;7.30;5.30;;;;;;;18.03;50.78;100796.86;110282;1267;23065;-81
2023/07/10 02:55:58;;;;;;;6.60;5.10;;;;;;;18.03;50.85;100802.29;109763;1269;21989;-82
2023/07/10 02:58:31;;;;;;;10.40;5.90;;;;;;;18.02;50.78;100801.82;109260;1275;21982;-80
2023/07/10 03:01:12;;;;;;;8.60;4.70;;;;;;;18.01;50.77;100799.41;109288;1275;22017;-80
2023/07/10 03:03:46;;;;;;;7.70;4.50;;;;;;;18.00;50.76;100802.47;109267;1273;23050;-81
2023/07/10 03:06:17;;;;;;;8.30;5.40;;;;;;;18.00;50.70;100801.29;109373;1272;22442;-81
2023/07/10 03:08:50;;;;;;;7.80;5.10;;;;;;;18.00;50.87;100797.90;109571;1272;22414;-81
2023/07/10 03:11:22;;;;;;;8.20;5.00;;;;;;;18.01;50.80;100796.77;109784;1267;23036;-80
2023/07/10 03:14:04;;;;;;;6.70;5.40;;;;;;;18.01;51.03;100798.18;109976;1267;21981;-82
2023/07/10 03:16:44;;;;;;;8.70;5.80;;;;;;;18.04;51.24;100793.09;109666;1264;23083;-80
2023/07/10 03:19:14;;;;;;;10.60;5.60;;;;;;;18.05;51.11;100791.09;109792;1268;23097;-80
2023/07/10 03:21:45;;;;;;;13.80;12.30;;;;;;;18.02;51.27;100789.14;110361;1264;21976;-81
2023/07/10 03:24:29;;;;;;;11.60;6.20;;;;;;;18.00;51.58;100786.13;110622;1263;22223;-80
2023/07/10 03:27:02;;;;;;;31.90;29.00;;;;;;;18.00;51.93;100786.66;110573;1263;22429;-82
2023/07/10 03:29:36;;;;;;;;;;;;;;;18.01;52.22;100786.56;109996;1268;23115;-82
2023/07/10 03:32:12;;;;;;;18.50;16.10;;;;;;;17.90;52.18;100782.70;110010;1269;22270;-82
2023/07/10 03:34:43;;;;;;;16.30;6.50;;;;;;;17.82;52.46;100773.80;109742;1268;22082;-81
2023/07/10 03:37:18;;;;;;;11.20;6.50;;;;;;;17.81;52.78;100767.40;110257;1268;22053;-83
2023/07/10 03:39:54;;;;;;;7.70;5.70;;;;;;;17.85;52.99;100766.09;109967;1268;21974;-82
2023/07/10 03:42:27;;;;;;;19.10;7.00;;;;;;;17.90;53.00;100765.39;109720;1268;21972;-81
2023/07/10 03:44:59;;;;;;;9.60;6.00;;;;;;;17.94;53.10;100765.15;109935;1268;21973;-81
2023/07/10 03:47:35;;;;;;;11.00;6.60;;;;;;;17.96;52.98;100762.70;109882;1261;22312;-81
2023/07/10 03:50:10;;;;;;;11.30;5.80;;;;;;;18.01;52.87;100766.33;110376;1268;21997;-84
2023/07/10 03:52:42;;;;;;;11.70;6.30;;;;;;;18.05;52.83;100769.56;110493;1262;21968;-81
2023/07/10 03:55:15;;;;;;;10.20;5.60;;;;;;;18.08;52.66;100766.56;110365;1266;21986;-82
2023/07/10 03:57:49;;;;;;;8.20;5.20;;;;;;;18.10;52.45;100768.73;110567;1266;22004;-81
2023/07/10 04:00:30;;;;;;;13.10;5.60;;;;;;;18.14;52.51;100770.10;110232;1266;22890;-81
2023/07/10 04:03:05;;;;;;;17.60;5.40;;;;;;;18.21;52.19;100769.08;110342;1266;22543;-81
2023/07/10 04:05:36;;;;;;;7.60;5.70;;;;;;;18.27;52.11;100768.59;109978;1269;21975;-78
2023/07/10 04:08:19;;;;;;;7.20;4.60;;;;;;;18.26;51.92;100757.56;110302;1264;22392;-81
2023/07/10 04:11:16;;;;;;;9.40;5.00;;;;;;;18.35;51.85;100772.46;110607;1264;22007;-82
2023/07/10 04:14:00;;;;;;;9.10;4.70;;;;;;;18.41;51.71;100774.03;110756;1259;23879;-81
2023/07/10 04:16:53;;;;;;;9.10;5.20;;;;;;;18.52;51.67;100774.02;110931;1259;21968;-80
2023/07/10 04:19:27;;;;;;;9.30;5.10;;;;;;;18.61;51.18;100777.13;110721;1250;23128;-80
2023/07/10 04:22:01;;;;;;;6.50;5.30;;;;;;;18.66;50.84;100776.85;110942;1259;21972;-80
2023/07/10 04:24:35;;;;;;;8.10;5.00;;;;;;;18.66;50.83;100765.50;110897;1259;21962;-81
2023/07/10 04:27:07;;;;;;;12.60;5.70;;;;;;;18.76;50.68;100764.05;110958;1259;21965;-81
2023/07/10 04:29:40;;;;;;;11.50;4.50;;;;;;;18.88;50.47;100772.21;110927;1259;22022;-82
2023/07/10 04:32:14;;;;;;;10.50;5.40;;;;;;;18.88;50.20;100772.38;111067;1259;21985;-80
2023/07/10 04:34:45;;;;;;;10.50;5.10;;;;;;;18.91;50.23;100773.45;110401;1264;22991;-79
2023/07/10 04:37:24;;;;;;;13.00;5.00;;;;;;;18.97;50.36;100773.22;109553;1271;22028;-80
2023/07/10 04:40:02;;;;;;;8.00;4.70;;;;;;;19.06;50.32;100775.46;109403;1271;21978;-80
2023/07/10 04:42:37;;;;;;;9.40;5.00;;;;;;;19.10;49.88;100772.02;109218;1276;22007;-81
2023/07/10 04:45:19;;;;;;;11.80;4.80;;;;;;;19.08;49.64;100775.70;109032;1275;22080;-81
2023/07/10 04:48:03;;;;;;;10.00;5.10;;;;;;;19.12;49.84;100775.21;108996;1276;22003;-81
2023/07/10 04:50:45;;;;;;;9.20;5.50;;;;;;;19.20;49.86;100772.24;109489;1272;22001;-81
2023/07/10 04:53:18;;;;;;;8.90;4.80;;;;;;;19.33;50.07;100772.95;109475;1271;22337;-80
2023/07/10 04:55:52;;;;;;;8.30;5.40;;;;;;;19.50;50.06;100774.83;109914;1268;23186;-80
2023/07/10 04:58:24;;;;;;;10.90;4.60;;;;;;;19.63;49.83;100771.80;110289;1268;21987;-80
2023/07/10 05:00:59;;;;;;;;;;;;;;;19.77;49.65;100769.80;110396;1262;22887;-81
2023/07/10 05:03:43;;;;;;;8.90;4.50;;;;;;;19.89;49.49;100769.70;110863;1262;21982;-80
2023/07/10 05:06:22;;;;;;;10.20;5.30;;;;;;;19.98;48.57;100776.27;110534;1262;23121;-82
2023/07/10 05:08:58;;;;;;;8.80;5.00;;;;;;;19.99;48.09;100772.67;110701;1262;21997;-80
2023/07/10 05:11:48;;;;;;;6.10;4.20;;;;;;;20.00;48.12;100770.11;110499;1262;21965;-79
2023/07/10 05:14:32;;;;;;;9.60;5.50;;;;;;;20.10;48.03;100769.58;110588;1262;23054;-78
2023/07/10 05:17:03;;;;;;;5.90;4.50;;;;;;;20.43;48.56;100770.04;110546;1262;22032;-80
2023/07/10 05:19:40;;;;;;;10.70;4.40;;;;;;;20.94;48.10;100771.64;109868;1270;21984;-78
2023/07/10 05:22:13;;;;;;;10.80;4.30;;;;;;;21.44;46.76;100760.45;109638;1269;22165;-79
2023/07/10 05:24:52;;;;;;;6.20;4.10;;;;;;;21.90;45.64;100749.48;109747;1270;22046;-79
2023/07/10 05:27:44;;;;;;;6.80;3.40;;;;;;;22.50;44.29;100757.77;109061;1276;23720;-79
2023/07/10 05:30:19;;;;;;;10.90;4.50;;;;;;;23.02;43.45;100765.81;109003;1275;22226;-79
2023/07/10 05:33:03;;;;;;;12.60;4.10;;;;;;;23.39;42.53;100767.11;109221;1275;22925;-78
2023/07/10 05:35:47;;;;;;;11.20;4.70;;;;;;;23.67;41.93;100770.89;109371;1276;22068;-86
2023/07/10 05:38:34;;;;;;;10.40;3.90;;;;;;;24.02;41.52;100773.73;110087;1269;24773;-83
2023/07/10 05:41:08;;;;;;;14.80;4.30;;;;;;;24.26;40.77;100772.54;109751;1269;23780;-83
2023/07/10 05:43:52;;;;;;;14.20;4.40;;;;;;;24.54;40.74;100768.86;109864;1270;22701;-80
2023/07/10 05:46:31;;;;;;;8.70;5.20;;;;;;;24.81;39.73;100764.99;109927;1269;23716;-79
2023/07/10 05:49:08;;;;;;;12.60;5.70;;;;;;;25.05;39.63;100759.56;109687;1269;21953;-80
2023/07/10 05:51:41;;;;;;;11.30;6.10;;;;;;;25.44;39.28;100756.54;109965;1267;22007;-78
2023/07/10 05:54:11;;;;;;;12.10;6.70;;;;;;;25.79;38.24;100750.83;109957;1267;22485;-78
2023/07/10 05:56:41;;;;;;;9.30;5.20;;;;;;;26.12;37.61;100748.98;109689;1270;22729;-79
2023/07/10 05:59:15;;;;;;;8.70;5.10;;;;;;;26.48;36.74;100743.84;109945;1267;22002;-80
2023/07/10 06:01:49;;;;;;;7.10;4.30;;;;;;;26.66;35.98;100745.67;110432;1262;21979;-79
2023/07/10 06:04:26;;;;;;;6.90;3.80;;;;;;;26.66;35.43;100741.02;110386;1262;22949;-80
2023/07/10 06:07:02;;;;;;;;;;;;;;;26.51;35.26;100735.67;109907;1267;22409;-80
2023/07/10 06:09:46;;;;;;;6.30;3.90;;;;;;;26.28;35.59;100732.54;109582;1272;22419;-81
2023/07/10 06:12:33;;;;;;;5.70;3.10;;;;;;;26.08;35.86;100736.48;109396;1272;21980;-80
2023/07/10 06:15:07;;;;;;;6.10;2.80;;;;;;;25.91;35.87;100731.40;109296;1272;23060;-79
2023/07/10 06:17:51;;;;;;;5.40;2.80;;;;;;;25.78;36.16;100730.32;109615;1272;22273;-80
2023/07/10 06:20:44;;;;;;;4.30;2.80;;;;;;;25.66;36.32;100721.51;109267;1273;22018;-79
2023/07/10 06:23:51;;;;;;;4.50;3.10;;;;;;;25.73;36.24;100734.30;109045;1276;21994;-80
2023/07/10 06:26:42;;;;;;;5.60;3.30;;;;;;;25.70;36.38;100737.30;108327;1286;22002;-80
2023/07/10 06:29:56;;;;;;;;;;;;;;;;;;;;;
2023/07/10 06:32:53;;;;;;;4.80;2.80;;;;;;;25.60;35.95;100731.05;108804;1278;22029;-80
2023/07/10 06:35:27;;;;;;;5.90;3.10;;;;;;;25.55;35.97;100733.92;108537;1283;22383;-76
2023/07/10 06:38:01;;;;;;;6.70;3.30;;;;;;;25.51;36.07;100731.96;108577;1279;22209;-76
2023/07/10 06:40:30;;;;;;;4.20;2.40;;;;;;;25.48;36.32;100730.46;108323;1270;22001;-75
2023/07/10 06:43:09;;;;;;;5.60;2.80;;;;;;;25.48;36.05;100728.02;108303;1283;22214;-74
2023/07/10 06:45:50;;;;;;;4.40;2.70;;;;;;;25.41;35.85;100730.08;108721;1280;22254;-76
2023/07/10 06:48:26;;;;;;;4.00;2.90;;;;;;;25.37;36.19;100728.81;108460;1284;23676;-76
2023/07/10 06:50:58;;;;;;;8.40;3.50;;;;;;;25.41;36.06;100728.63;108575;1280;23826;-75
2023/07/10 06:53:27;;;;;;;4.00;2.30;;;;;;;25.43;35.92;100727.36;108860;1280;21996;-76
2023/07/10 06:56:11;;;;;;;7.20;4.40;;;;;;;25.44;35.63;100726.76;108925;1280;22003;-76
2023/07/10 06:58:44;;;;;;;4.40;2.70;;;;;;;25.47;35.49;100727.70;108898;1276;22923;-76
2023/07/10 07:01:30;;;;;;;3.80;2.90;;;;;;;25.46;35.25;100725.31;109015;1275;23699;-76
2023/07/10 07:04:09;;;;;;;6.00;2.60;;;;;;;25.39;35.38;100725.95;109775;1252;23743;-78
2023/07/10 07:06:59;;;;;;;;;;;;;;;;;;;;;
2023/07/10 07:09:45;;;;;;;6.30;3.50;;;;;;;25.42;35.80;100726.06;111115;1254;21954;-78
2023/07/10 07:12:24;;;;;;;7.50;3.80;;;;;;;25.44;35.71;100724.94;111062;1257;21977;-78
2023/07/10 07:15:03;;;;;;;7.30;4.00;;;;;;;25.49;35.73;100721.15;110779;1257;23589;-76
2023/07/10 07:17:33;;;;;;;7.10;4.50;;;;;;;25.53;35.52;100717.14;110586;1263;23590;-77
2023/07/10 07:20:05;;;;;;;5.90;3.80;;;;;;;25.60;35.41;100715.65;110215;1263;22576;-75
2023/07/10 07:22:45;;;;;;;5.30;2.60;;;;;;;25.64;35.36;100713.06;110378;1262;22464;-80
2023/07/10 07:25:18;;;;;;;;;;;;;;;25.73;35.39;100711.87;110600;1262;21945;-76
2023/07/10 07:27:51;;;;;;;19.70;5.90;;;;;;;25.84;35.55;100713.69;110363;1262;22745;-85
2023/07/10 07:30:34;;;;;;;7.40;2.60;;;;;;;26.18;35.28;100712.49;110564;1262;21991;-79
2023/07/10 07:33:28;;;;;;;3.90;2.60;;;;;;;26.64;35.07;100713.37;110118;1267;22020;-82
2023/07/10 07:36:07;;;;;;;5.70;2.90;;;;;;;27.16;34.54;100712.02;109473;1269;22007;-80
2023/07/10 07:39:33;;;;;;;7.70;2.60;;;;;;;27.77;33.83;100708.27;110168;1269;21986;-81
2023/07/10 07:42:38;;;;;;;3.40;2.40;;;;;;;28.41;32.84;100701.50;110046;1269;23033;-82
2023/07/10 07:45:29;;;;;;;9.80;2.90;;;;;;;28.84;31.52;100705.67;109456;1274;23055;-81
2023/07/10 07:48:28;;;;;;;6.50;2.80;;;;;;;29.04;30.66;100707.05;109402;1274;23063;-82
2023/07/10 07:51:37;;;;;;;7.50;2.80;;;;;;;29.10;30.79;100706.85;109600;1257;21976;-81
2023/07/10 07:54:38;;;;;;;;;;;;;;;;;;;;;
2023/07/10 07:57:25;;;;;;;14.80;4.60;;;;;;;29.71;30.49;100696.66;109694;1272;22001;-82
2023/07/10 08:00:19;;;;;;;4.50;3.10;;;;;;;30.00;29.98;100686.42;109846;1266;23037;-83
2023/07/10 08:03:04;;;;;;;3.30;2.70;;;;;;;30.13;29.58;100691.55;110363;1262;24368;-82
2023/07/10 08:05:44;;;;;;;4.00;2.50;;;;;;;30.28;29.07;100694.48;110808;1262;21965;-83
2023/07/10 08:08:19;;;;;;;2.90;2.50;;;;;;;30.38;28.64;100688.77;110940;1262;21963;-82
2023/07/10 08:10:59;;;;;;;3.90;2.50;;;;;;;30.55;28.68;100682.55;110804;1262;22483;-84
2023/07/10 08:13:33;;;;;;;7.10;2.40;;;;;;;30.71;28.11;100680.69;110852;1249;21971;-82
2023/07/10 08:16:08;;;;;;;2.70;2.20;;;;;;;30.70;27.77;100677.52;110531;1263;22748;-81
2023/07/10 08:18:53;;;;;;;3.60;2.60;;;;;;;30.74;27.82;100679.27;110216;1269;21982;-82
2023/07/10 08:21:44;;;;;;;7.10;2.20;;;;;;;30.88;27.36;100681.89;110296;1268;22415;-82
2023/07/10 08:24:49;;;;;;;5.60;2.30;;;;;;;31.03;27.28;100678.52;109661;1270;21998;-82
2023/07/10 08:27:45;;;;;;;5.10;2.30;;;;;;;31.33;27.48;100679.91;109594;1273;21984;-82
2023/07/10 08:30:53;;;;;;;6.50;2.40;;;;;;;31.76;26.70;100684.25;109543;1273;21979;-81
2023/07/10 08:33:42;;;;;;;6.60;2.20;;;;;;;31.94;25.68;100685.06;109138;1273;21995;-82
2023/07/10 08:36:52;;;;;;;4.20;2.30;;;;;;;31.71;25.36;100687.77;109869;1267;22561;-82
2023/07/10 08:39:39;;;;;;;5.60;2.80;;;;;;;31.55;25.81;100693.31;110362;1268;22458;-82
2023/07/10 08:42:52;;;;;;;6.10;2.30;;;;;;;31.63;26.38;100700.09;110311;1263;22067;-83
2023/07/10 08:45:48;;;;;;;5.90;2.90;;;;;;;31.85;26.10;100704.73;110522;1263;21989;-82
2023/07/10 08:48:50;;;;;;;7.90;2.80;;;;;;;31.95;25.74;100704.55;110714;1263;21992;-82
2023/07/10 08:52:07;;;;;;;5.70;2.80;;;;;;;32.04;26.03;100700.21;110698;1263;21994;-81
2023/07/10 08:54:37;;;;;;;4.40;3.30;;;;;;;32.22;25.40;100700.36;110806;1254;22725;-81
2023/07/10 08:57:38;;;;;;;6.10;2.90;;;;;;;32.35;25.23;100700.70;109681;1270;22751;-82
2023/07/10 09:00:51;;;;;;;4.50;2.60;;;;;;;32.41;24.98;100705.07;110765;1263;22926;-84
2023/07/10 09:03:51;;;;;;;10.30;2.30;;;;;;;32.45;24.39;100703.38;110751;1262;22020;-82
2023/07/10 09:07:28;;;;;;;;;;;;;;;;;;;;;
2023/07/10 09:15:12;;;;;;;8.70;2.20;;;;;;;32.37;24.22;100698.64;108733;1282;24083;-83
2023/07/10 09:18:20;;;;;;;4.10;1.70;;;;;;;32.46;24.27;100697.94;108913;1282;21988;-80
2023/07/10 09:21:12;;;;;;;3.90;2.00;;;;;;;32.56;23.98;100700.70;108509;1287;22462;-80
2023/07/10 09:23:51;;;;;;;3.40;2.00;;;;;;;32.50;23.58;100699.23;108479;1285;21870;-81
2023/07/10 09:26:39;;;;;;;6.70;2.10;;;;;;;32.52;23.55;100701.48;108664;1283;22494;-82
2023/07/10 09:29:31;;;;;;;4.20;2.60;;;;;;;32.69;23.25;100696.20;108457;1288;22013;-82
2023/07/10 09:32:20;;;;;;;2.90;2.10;;;;;;;32.91;22.96;100693.31;108426;1291;22910;-81
2023/07/10 09:34:58;;;;;;;2.50;2.00;;;;;;;33.01;22.34;100693.09;108434;1288;23740;-80
2023/07/10 09:38:08;;;;;;;2.90;1.80;;;;;;;33.04;22.59;100691.33;108489;1283;22010;-81
2023/07/10 09:40:57;;;;;;;2.80;2.10;;;;;;;33.06;22.38;100684.14;108783;1283;22980;-82
2023/07/10 09:43:30;;;;;;;6.00;2.40;;;;;;;33.14;22.44;100680.44;108898;1281;21999;-83
2023/07/10 09:46:11;;;;;;;3.10;2.30;;;;;;;33.20;22.09;100680.84;109072;1276;21963;-83
2023/07/10 09:48:52;;;;;;;;;;;;;;;33.21;21.95;100682.85;109183;1277;21977;-81
2023/07/10 09:51:31;;;;;;;3.10;2.10;;;;;;;33.09;21.83;100679.70;109584;1268;23193;-80
2023/07/10 09:54:36;;;;;;;3.50;2.70;;;;;;;33.11;21.91;100675.05;110593;1263;21951;-81
2023/07/10 09:57:28;;;;;;;3.80;2.20;;;;;;;33.21;21.86;100679.23;110493;1263;21963;-80
2023/07/10 10:00:50;;;;;;;6.50;2.60;;;;;;;33.21;21.58;100678.69;110560;1263;21983;-82
2023/07/10 10:03:41;;;;;;;3.40;2.10;;;;;;;33.13;21.41;100677.30;110213;1264;22374;-81
2023/07/10 10:06:32;;;;;;;2.30;1.90;;;;;;;33.10;21.60;100673.60;110630;1259;22181;-81
2023/07/10 10:12:41;;;;;;;5.20;2.10;;;;;;;33.00;21.57;100661.22;111034;1259;23000;-80
2023/07/10 10:15:32;;;;;;;2.80;1.70;;;;;;;33.00;21.56;100659.14;110245;1266;23106;-82
2023/07/10 10:18:18;;;;;;;2.90;2.10;;;;;;;32.96;21.40;100650.39;109967;1264;22854;-82
2023/07/10 10:20:58;;;;;;;4.10;1.90;;;;;;;32.95;21.36;100645.30;110384;1265;21960;-84
2023/07/10 10:24:03;;;;;;;3.20;2.30;;;;;;;32.72;21.30;100643.80;110332;1265;23022;-82
2023/07/10 10:27:07;;;;;;;4.10;2.20;;;;;;;32.55;21.23;100636.77;110290;1264;22998;-82
2023/07/10 10:30:24;;;;;;;2.70;1.90;;;;;;;32.51;21.36;100632.44;110279;1265;21964;-80
2023/07/10 10:33:27;;;;;;;5.10;1.90;;;;;;;32.30;21.33;100625.77;110610;1265;21971;-83
2023/07/10 10:36:31;;;;;;;3.90;2.10;;;;;;;32.20;21.79;100617.83;110430;1265;21996;-81
2023/07/10 10:39:54;;;;;;;2.60;2.00;;;;;;;32.29;21.90;100613.12;110309;1259;23090;-81
2023/07/10 10:43:20;;;;;;;3.20;2.10;;;;;;;32.35;21.75;100609.06;110308;1266;23612;-82
2023/07/10 10:46:02;;;;;;;2.70;2.20;;;;;;;32.38;21.71;100602.94;110322;1266;22001;-81
2023/07/10 10:49:15;;;;;;;4.30;2.40;;;;;;;32.36;21.59;100597.08;109995;1262;23233;-81
2023/07/10 10:52:31;;;;;;;9.10;2.90;;;;;;;32.37;21.50;100597.83;110550;1265;22831;-80
2023/07/10 10:55:29;;;;;;;6.20;2.60;;;;;;;32.42;21.44;100590.59;109003;1279;23830;-82
2023/07/10 10:58:11;;;;;;;3.10;2.40;;;;;;;32.45;21.50;100586.92;109058;1279;22030;-81
2023/07/10 11:01:36;;;;;;;7.50;3.10;;;;;;;32.46;21.66;100577.81;109094;1279;23718;-81
2023/07/10 11:04:31;;;;;;;4.10;2.90;;;;;;;32.47;21.69;100575.91;108642;1286;22012;-83
2023/07/10 11:07:16;;;;;;;2.60;2.30;;;;;;;32.45;21.65;100569.71;108296;1286;23113;-80
2023/07/10 11:10:13;;;;;;;5.60;2.30;;;;;;;32.48;21.84;100562.92;108468;1286;23061;-80
2023/07/10 11:12:53;;;;;;;4.20;2.80;;;;;;;32.52;21.56;100561.83;108526;1281;22001;-80
2023/07/10 11:15:56;;;;;;;5.60;3.10;;;;;;;32.46;21.32;100559.83;108970;1281;22007;-80
2023/07/10 11:18:49;;;;;;;3.50;2.30;;;;;;;32.37;21.47;100552.62;109073;1274;22021;-85
2023/07/10 11:21:33;;;;;;;6.60;2.80;;;;;;;32.34;21.94;100535.06;109463;1274;21984;-87
2023/07/10 11:24:28;;;;;;;3.80;2.90;;;;;;;32.29;22.05;100526.67;109349;1271;22053;-81
2023/07/10 11:27:41;;;;;;;7.00;5.30;;;;;;;32.28;22.01;100526.96;109150;1276;21984;-83
2023/07/10 11:30:35;;;;;;;3.90;3.00;;;;;;;32.23;21.59;100511.38;108672;1280;22031;-81
2023/07/10 11:33:36;;;;;;;5.60;2.90;;;;;;;32.18;21.46;100494.52;109269;1278;22000;-82
2023/07/10 11:36:35;;;;;;;3.00;2.70;;;;;;;32.12;21.36;100507.63;109117;1278;23605;-83
2023/07/10 11:39:11;;;;;;;3.40;2.40;;;;;;;32.11;21.38;100506.79;109035;1277;22010;-82
2023/07/10 11:41:45;;;;;;;4.20;2.60;;;;;;;32.13;21.36;100512.71;109123;1277;22012;-82
2023/07/10 11:44:40;;;;;;;5.00;3.00;;;;;;;32.09;21.48;100503.70;109228;1272;21980;-83
2023/07/10 11:47:32;;;;;;;14.20;12.80;;;;;;;32.15;21.73;100503.83;109632;1272;21977;-82
2023/07/10 11:50:38;;;;;;;;;;;;;;;32.17;21.63;100504.52;109631;1272;22288;-81
2023/07/10 11:53:17;;;;;;;6.20;3.90;;;;;;;32.17;22.20;100498.04;109303;1276;23682;-81
2023/07/10 11:56:01;;;;;;;7.60;3.60;;;;;;;32.26;22.25;100489.91;109303;1273;23914;-81
2023/07/10 11:58:47;;;;;;;3.80;3.40;;;;;;;32.32;22.02;100485.77;109150;1276;22912;-83
2023/07/10 12:01:42;;;;;;;3.80;2.50;;;;;;;32.22;21.30;100478.27;109728;1271;22011;-82
2023/07/10 12:04:36;;;;;;;4.20;3.00;;;;;;;32.24;21.57;100479.55;110019;1264;21972;-82
2023/07/10 12:07:17;;;;;;;2.90;2.50;;;;;;;32.33;21.88;100477.17;110260;1264;21925;-82
2023/07/10 12:10:19;;;;;;;3.40;2.60;;;;;;;32.40;21.47;100475.89;110576;1264;22700;-82
2023/07/10 12:12:51;;;;;;;3.60;3.10;;;;;;;32.47;21.44;100479.54;111118;1258;22381;-82
2023/07/10 12:15:52;;;;;;;9.60;2.90;;;;;;;32.45;21.35;100478.24;110986;1258;21972;-82
2023/07/10 12:18:38;;;;;;;5.60;3.10;;;;;;;32.44;21.30;100477.61;110329;1263;24437;-82
2023/07/10 12:21:30;;;;;;;4.50;2.70;;;;;;;32.42;21.50;100474.94;110339;1264;21991;-82
2023/07/10 12:24:04;;;;;;;4.70;3.40;;;;;;;32.36;21.30;100473.86;109698;1270;21991;-82
2023/07/10 12:26:55;;;;;;;4.80;2.90;;;;;;;32.32;21.28;100467.02;109263;1274;23638;-83
2023/07/10 12:30:14;;;;;;;5.80;2.80;;;;;;;32.36;21.54;100463.30;109236;1274;24312;-82
2023/07/10 12:33:35;;;;;;;3.30;2.90;;;;;;;32.36;21.26;100460.91;108904;1280;23551;-83
2023/07/10 12:36:26;;;;;;;4.70;2.80;;;;;;;32.21;21.21;100457.31;108963;1281;23735;-83
2023/07/10 12:39:42;;;;;;;4.00;2.70;;;;;;;32.19;22.00;100460.38;108936;1281;22071;-83
2023/07/10 12:42:36;;;;;;;3.40;2.90;;;;;;;32.21;21.95;100460.80;109061;1276;22003;-83
2023/07/10 12:45:29;;;;;;;;;;;;;;;;;;;;;
2023/07/10 12:48:20;;;;;;;5.50;2.10;;;;;;;32.31;21.72;100453.23;109373;1276;21968;-83
2023/07/10 12:50:58;;;;;;;5.20;3.40;;;;;;;32.44;21.62;100454.51;109365;1272;22000;-82